Terminal Aerodrome Forecast
Issued by NWS Spokane, WA

Home | Current Version | Previous Version | Text Only | Print | Product List | Glossary On
Versions: 1 2 3 4 5 6 7 8 9 10 11 12 13 14 15
000
FTUS46 KOTX 251129
TAFLWS
TAF
KLWS 251129Z 2512/2612 08010KT P6SM SCT250
     FM252000 14012G18KT P6SM VCSH SCT070 BKN100 BKN150
     FM260400 17016G22KT P6SM SCT050 BKN100
     FM260700 22018G28KT P6SM BKN250=

USA.gov is the U.S. government's official web portal to all federal, state and local government web resources and services.